createdAt,value
2019-01-19T00:00:39.899Z,6.60
2019-01-19T00:03:31.851Z,6.50
2019-01-19T00:06:15.753Z,6.40
2019-01-19T00:08:45.413Z,6.70
2019-01-19T00:11:17.471Z,6.60
2019-01-19T00:14:08.123Z,6.40
2019-01-19T00:16:43.515Z,6.50
2019-01-19T00:19:48.992Z,6.70
2019-01-19T00:22:40.276Z,6.30
2019-01-19T00:25:27.423Z,6.30
2019-01-19T00:28:25.064Z,6.30
2019-01-19T00:31:03.087Z,6.10
2019-01-19T00:33:37.728Z,6.20
2019-01-19T00:36:12.557Z,6.30
2019-01-19T00:38:45.153Z,6.20
2019-01-19T00:41:36.311Z,6.30
2019-01-19T00:44:16.719Z,6.20
2019-01-19T00:47:04.953Z,6.20
2019-01-19T00:49:34.388Z,6.20
2019-01-19T00:52:22.409Z,6.30
2019-01-19T00:54:54.464Z,6.30
2019-01-19T00:57:38.762Z,6.30
2019-01-19T01:00:10.789Z,6.30
2019-01-19T01:03:02.310Z,6.50
2019-01-19T01:05:34.419Z,6.20
2019-01-19T01:08:18.569Z,6.50
2019-01-19T01:10:56.488Z,6.30
2019-01-19T01:13:59.639Z,6.60
2019-01-19T01:16:44.103Z,6.60
2019-01-19T01:19:22.473Z,6.50
2019-01-19T01:22:10.024Z,6.50
2019-01-19T01:25:16.397Z,6.50
2019-01-19T01:28:00.065Z,6.60
2019-01-19T01:30:34.763Z,6.50
2019-01-19T01:33:09.285Z,6.40
2019-01-19T01:36:13.606Z,6.60
2019-01-19T01:38:45.687Z,6.50
2019-01-19T01:41:30.186Z,6.50
2019-01-19T01:44:17.764Z,6.60
2019-01-19T01:47:05.299Z,6.50
2019-01-19T01:49:37.399Z,6.50
2019-01-19T01:52:26.752Z,6.10
2019-01-19T01:55:02.266Z,6.60
2019-01-19T01:57:32.608Z,6.30
2019-01-19T02:00:22.688Z,6.20
2019-01-19T02:03:06.579Z,6.20
2019-01-19T02:05:44.720Z,6.20
2019-01-19T02:08:19.283Z,6.30
2019-01-19T02:11:08.602Z,6.00
2019-01-19T02:13:46.717Z,6.10
2019-01-19T02:16:23.337Z,6.30
2019-01-19T02:19:03.951Z,6.20
2019-01-19T02:21:38.956Z,6.10
2019-01-19T02:24:16.732Z,6.30
2019-01-19T02:26:55.011Z,6.10
2019-01-19T02:29:41.909Z,6.30
2019-01-19T02:32:17.470Z,6.20
2019-01-19T02:35:06.417Z,6.30
2019-01-19T02:37:44.257Z,6.10
2019-01-19T02:40:31.364Z,6.30
2019-01-19T02:43:07.177Z,6.10
2019-01-19T02:45:44.953Z,6.30
2019-01-19T02:48:39.750Z,6.20
2019-01-19T02:51:23.525Z,6.20
2019-01-19T02:54:04.899Z,6.30
2019-01-19T02:56:43.015Z,6.30
2019-01-19T02:59:18.793Z,6.20
2019-01-19T03:01:56.388Z,6.30
2019-01-19T03:04:34.369Z,6.10
2019-01-19T03:07:35.832Z,6.00
2019-01-19T03:10:38.314Z,6.00
2019-01-19T03:13:12.893Z,6.00
2019-01-19T03:15:56.899Z,5.90
2019-01-19T03:18:47.120Z,5.80
2019-01-19T03:21:50.519Z,5.90
2019-01-19T03:24:40.580Z,6.00
2019-01-19T03:27:27.837Z,5.80
2019-01-19T03:30:16.743Z,5.80
2019-01-19T03:32:51.473Z,6.00
2019-01-19T03:35:29.275Z,5.90
2019-01-19T03:38:20.960Z,5.80
2019-01-19T03:40:58.643Z,5.90
2019-01-19T03:43:49.393Z,5.90
2019-01-19T03:46:30.079Z,5.90
2019-01-19T03:49:11.470Z,5.80
2019-01-19T03:51:55.469Z,5.90
2019-01-19T03:54:30.619Z,5.80
2019-01-19T03:57:11.093Z,5.90
2019-01-19T03:59:55.535Z,6.00
2019-01-19T04:02:37.429Z,5.80
2019-01-19T04:05:39.785Z,6.10
2019-01-19T04:08:39.164Z,5.80
2019-01-19T04:11:23.072Z,5.90
2019-01-19T04:13:58.182Z,5.90
2019-01-19T04:16:53.116Z,5.90
2019-01-19T04:19:27.990Z,5.90
2019-01-19T04:22:08.611Z,5.90
2019-01-19T04:24:43.514Z,6.00
2019-01-19T04:27:13.513Z,5.90
2019-01-19T04:29:42.161Z,5.80
2019-01-19T04:32:11.306Z,5.90
2019-01-19T04:34:40.617Z,5.90
2019-01-19T04:37:09.786Z,5.80
2019-01-19T04:39:39.159Z,5.80
2019-01-19T04:42:08.436Z,5.80
2019-01-19T04:44:37.905Z,6.00
2019-01-19T04:47:07.062Z,5.80
2019-01-19T04:49:36.343Z,5.80
2019-01-19T04:52:06.788Z,5.80
2019-01-19T04:54:35.990Z,5.80
2019-01-19T04:57:05.474Z,5.90
2019-01-19T04:59:34.641Z,5.90
2019-01-19T05:02:03.393Z,5.80
2019-01-19T05:04:32.014Z,5.80
2019-01-19T05:07:00.629Z,5.90
2019-01-19T05:09:29.223Z,5.90
2019-01-19T05:11:57.859Z,5.70
2019-01-19T05:14:26.982Z,6.20
2019-01-19T05:16:55.647Z,6.20
2019-01-19T05:19:24.280Z,6.20
2019-01-19T05:21:53.449Z,6.20
2019-01-19T05:24:22.360Z,6.00
2019-01-19T05:26:51.003Z,6.20
2019-01-19T05:29:20.054Z,6.20
2019-01-19T05:31:49.003Z,6.20
2019-01-19T05:34:18.206Z,6.20
2019-01-19T05:36:48.937Z,6.00
2019-01-19T05:39:18.174Z,6.30
2019-01-19T05:41:47.647Z,6.20
2019-01-19T05:44:16.916Z,6.20
2019-01-19T05:46:45.757Z,6.20
2019-01-19T05:49:14.487Z,6.30
2019-01-19T05:51:43.112Z,6.10
2019-01-19T05:54:11.794Z,6.10
2019-01-19T05:56:40.504Z,6.00
2019-01-19T05:59:09.230Z,6.00
2019-01-19T06:01:38.365Z,6.20
2019-01-19T06:04:07.722Z,6.10
2019-01-19T06:06:37.278Z,6.20
2019-01-19T06:09:07.655Z,6.00
2019-01-19T06:11:36.745Z,6.40
2019-01-19T06:14:06.210Z,6.00
2019-01-19T06:16:35.693Z,6.30
2019-01-19T06:19:04.926Z,6.20
2019-01-19T06:21:35.438Z,6.20
2019-01-19T06:24:04.930Z,6.10
2019-01-19T06:26:34.159Z,6.20
2019-01-19T06:29:03.664Z,6.30
2019-01-19T06:31:33.745Z,6.10
2019-01-19T06:34:02.502Z,6.00
2019-01-19T06:36:31.328Z,6.20
2019-01-19T06:39:00.734Z,6.20
2019-01-19T06:41:29.478Z,5.90
2019-01-19T06:43:58.144Z,5.80
2019-01-19T06:46:27.182Z,6.00
2019-01-19T06:48:56.414Z,6.30
2019-01-19T06:51:25.782Z,6.20
2019-01-19T06:54:01.486Z,6.00
2019-01-19T06:56:27.134Z,6.30
2019-01-19T06:58:56.431Z,6.00
2019-01-19T07:01:25.834Z,6.10
2019-01-19T07:03:55.235Z,6.10
2019-01-19T07:06:24.520Z,6.20
2019-01-19T07:08:53.768Z,6.10
2019-01-19T07:11:22.933Z,6.00
2019-01-19T07:13:51.999Z,6.20
2019-01-19T07:16:21.031Z,6.10
2019-01-19T07:18:49.670Z,6.30
2019-01-19T07:21:18.387Z,6.30
2019-01-19T07:23:46.959Z,6.30
2019-01-19T07:26:16.271Z,6.30
2019-01-19T07:28:45.576Z,6.30
2019-01-19T07:31:15.002Z,6.30
2019-01-19T07:33:44.252Z,6.30
2019-01-19T07:36:13.217Z,6.50
2019-01-19T07:38:42.377Z,6.30
2019-01-19T07:41:11.712Z,6.40
2019-01-19T07:43:42.746Z,6.60
2019-01-19T07:46:12.946Z,6.50
2019-01-19T07:48:42.400Z,6.70
2019-01-19T07:51:12.033Z,6.40
2019-01-19T07:53:41.318Z,6.60
2019-01-19T07:56:11.686Z,6.60
2019-01-19T07:58:40.924Z,6.50
2019-01-19T08:01:10.186Z,6.50
2019-01-19T08:03:39.309Z,6.40
2019-01-19T08:06:08.523Z,6.60
2019-01-19T08:08:37.734Z,6.60
2019-01-19T08:11:07.168Z,6.60
2019-01-19T08:13:37.231Z,6.80
2019-01-19T08:16:07.018Z,6.70
2019-01-19T08:18:36.112Z,6.80
2019-01-19T08:21:05.146Z,6.80
2019-01-19T08:23:34.582Z,7.00
2019-01-19T08:26:03.840Z,7.00
2019-01-19T08:28:33.129Z,6.90
2019-01-19T08:31:02.329Z,6.80
2019-01-19T08:33:31.664Z,6.90
2019-01-19T08:36:01.136Z,6.80
2019-01-19T08:38:30.233Z,6.90
2019-01-19T08:40:59.523Z,6.90
2019-01-19T08:43:30.490Z,6.90
2019-01-19T08:46:02.155Z,7.00
2019-01-19T08:48:30.944Z,7.00
2019-01-19T08:51:00.048Z,7.40
2019-01-19T08:53:28.772Z,7.20
2019-01-19T08:55:57.511Z,7.40
2019-01-19T08:58:26.904Z,7.40
2019-01-19T09:00:56.421Z,7.50
2019-01-19T09:03:25.697Z,7.60
2019-01-19T09:05:54.905Z,7.60
2019-01-19T09:08:24.678Z,7.60
2019-01-19T09:10:53.808Z,7.60
2019-01-19T09:13:23.328Z,7.70
2019-01-19T09:15:53.647Z,7.80
2019-01-19T09:18:22.999Z,7.60
2019-01-19T09:20:52.207Z,8.10
2019-01-19T09:23:22.973Z,7.80
2019-01-19T09:25:52.034Z,7.60
2019-01-19T09:28:21.142Z,8.00
2019-01-19T09:30:50.462Z,8.10
2019-01-19T09:33:19.396Z,7.90
2019-01-19T09:35:48.131Z,7.90
2019-01-19T09:38:16.811Z,8.20
2019-01-19T09:40:45.542Z,7.60
2019-01-19T09:43:15.076Z,8.10
2019-01-19T09:45:45.217Z,7.80
2019-01-19T09:48:14.517Z,7.90
2019-01-19T09:50:43.817Z,7.90
2019-01-19T09:53:13.171Z,8.20
2019-01-19T09:55:42.462Z,7.90
2019-01-19T09:58:11.833Z,8.00
2019-01-19T10:00:45.500Z,8.00
2019-01-19T10:03:11.940Z,8.10
2019-01-19T10:05:41.231Z,8.20
2019-01-19T10:08:10.597Z,8.70
2019-01-19T10:10:40.021Z,8.40
2019-01-19T10:13:09.221Z,8.60
2019-01-19T10:15:38.455Z,8.80
2019-01-19T10:18:07.641Z,8.90
2019-01-19T10:20:36.720Z,9.10
2019-01-19T10:23:06.060Z,9.30
2019-01-19T10:25:35.476Z,9.50
2019-01-19T10:28:04.507Z,9.60
2019-01-19T10:30:33.632Z,9.70
2019-01-19T10:33:03.340Z,9.80
2019-01-19T10:35:32.636Z,9.90
2019-01-19T10:38:02.052Z,9.60
2019-01-19T10:40:31.227Z,9.30
2019-01-19T10:43:00.517Z,9.00
2019-01-19T10:45:29.699Z,8.90
2019-01-19T10:47:59.363Z,8.70
2019-01-19T10:50:28.496Z,8.50
2019-01-19T10:52:57.855Z,8.40
2019-01-19T10:55:26.876Z,8.30
2019-01-19T10:57:56.277Z,8.30
2019-01-19T11:00:30.231Z,8.20
2019-01-19T11:03:00.155Z,8.10
2019-01-19T11:05:29.088Z,8.00
2019-01-19T11:08:03.507Z,8.10
2019-01-19T11:10:30.532Z,8.10
2019-01-19T11:12:59.786Z,8.00
2019-01-19T11:15:29.212Z,8.10
2019-01-19T11:17:58.883Z,8.10
2019-01-19T11:20:32.378Z,8.10
2019-01-19T11:23:01.970Z,8.20
2019-01-19T11:25:31.764Z,8.00
2019-01-19T11:28:01.122Z,8.10
2019-01-19T11:30:31.742Z,8.00
2019-01-19T11:33:00.706Z,8.10
2019-01-19T11:35:30.815Z,8.20
2019-01-19T11:38:00.035Z,8.00
2019-01-19T11:40:36.959Z,8.10
2019-01-19T11:43:08.296Z,8.20
2019-01-19T11:45:37.931Z,8.20
2019-01-19T11:48:06.996Z,8.20
2019-01-19T11:50:36.559Z,8.20
2019-01-19T11:53:05.400Z,8.50
2019-01-19T11:55:34.598Z,8.20
2019-01-19T11:58:05.778Z,8.10
2019-01-19T12:00:36.748Z,8.00
2019-01-19T12:03:06.120Z,8.10
2019-01-19T12:05:35.482Z,8.10
2019-01-19T12:08:05.676Z,8.00
2019-01-19T12:10:34.877Z,8.00
2019-01-19T12:13:04.269Z,7.90
2019-01-19T12:15:33.785Z,7.70
2019-01-19T12:18:03.071Z,7.80
2019-01-19T12:20:34.733Z,7.60
2019-01-19T12:23:04.289Z,7.70
2019-01-19T12:25:33.554Z,7.60
2019-01-19T12:28:02.644Z,7.50
2019-01-19T12:30:33.792Z,7.50
2019-01-19T12:33:02.713Z,7.70
2019-01-19T12:35:31.669Z,7.30
2019-01-19T12:38:01.033Z,7.30
2019-01-19T12:40:30.647Z,7.30
2019-01-19T12:43:02.040Z,7.30
2019-01-19T12:45:37.441Z,7.40
2019-01-19T12:48:06.645Z,7.00
2019-01-19T12:50:35.856Z,6.90
2019-01-19T12:53:05.255Z,7.40
2019-01-19T12:55:34.742Z,7.00
2019-01-19T12:58:03.928Z,7.00
2019-01-19T13:00:34.268Z,6.90
2019-01-19T13:03:03.355Z,6.90
2019-01-19T13:05:35.791Z,6.90
2019-01-19T13:08:07.521Z,6.90
2019-01-19T13:10:42.811Z,6.90
2019-01-19T13:13:11.776Z,7.00
2019-01-19T13:15:49.429Z,7.00
2019-01-19T13:18:30.994Z,7.00
2019-01-19T13:21:05.476Z,7.00
2019-01-19T13:23:56.112Z,7.10
2019-01-19T13:26:44.954Z,7.20
2019-01-19T13:29:19.923Z,7.10
2019-01-19T13:31:52.355Z,7.20
2019-01-19T13:34:33.312Z,7.40
2019-01-19T13:37:11.012Z,6.90
2019-01-19T13:39:48.511Z,7.00
2019-01-19T13:42:23.486Z,6.80
2019-01-19T13:45:27.660Z,6.90
2019-01-19T13:48:15.189Z,6.60
2019-01-19T13:50:47.186Z,6.60
2019-01-19T13:53:34.778Z,6.40
2019-01-19T13:56:23.638Z,6.20
2019-01-19T13:59:07.538Z,6.10
2019-01-19T14:02:00.538Z,6.10
2019-01-19T14:04:38.425Z,6.20
2019-01-19T14:07:19.454Z,5.90
2019-01-19T14:10:11.227Z,6.00
2019-01-19T14:12:48.686Z,6.00
2019-01-19T14:15:23.444Z,6.00
2019-01-19T14:18:08.117Z,6.30
2019-01-19T14:21:01.632Z,6.10
2019-01-19T14:23:39.912Z,6.30
2019-01-19T14:26:39.523Z,6.30
2019-01-19T14:29:31.113Z,6.20
2019-01-19T14:32:19.674Z,6.20
2019-01-19T14:35:06.609Z,6.20
2019-01-19T14:37:54.320Z,6.20
2019-01-19T14:40:49.245Z,6.40
2019-01-19T14:43:40.406Z,6.20
2019-01-19T14:46:30.030Z,6.30
2019-01-19T14:49:25.694Z,6.50
2019-01-19T14:52:25.083Z,6.30
2019-01-19T14:55:11.953Z,6.30
2019-01-19T14:57:43.900Z,6.30
2019-01-19T15:00:37.446Z,6.50
2019-01-19T15:03:12.256Z,6.30
2019-01-19T15:05:44.435Z,6.70
2019-01-19T15:08:29.021Z,6.30
2019-01-19T15:11:01.319Z,6.30
2019-01-19T15:13:52.193Z,6.30
2019-01-19T15:16:44.421Z,6.30
2019-01-19T15:19:43.857Z,6.10
2019-01-19T15:22:25.013Z,6.20
2019-01-19T15:25:00.347Z,6.30
2019-01-19T15:27:40.910Z,6.10
2019-01-19T15:30:15.773Z,6.30
2019-01-19T15:32:58.380Z,6.10
2019-01-19T15:35:30.235Z,6.20
2019-01-19T15:38:20.834Z,6.10
2019-01-19T15:40:58.720Z,6.30
2019-01-19T15:43:30.931Z,6.30
2019-01-19T15:46:19.880Z,6.30
2019-01-19T15:49:00.619Z,6.00
2019-01-19T15:51:48.170Z,5.90
2019-01-19T15:54:39.898Z,5.90
2019-01-19T15:57:18.079Z,5.90
2019-01-19T15:59:59.170Z,5.90
2019-01-19T16:02:38.301Z,5.60
2019-01-19T16:05:26.113Z,5.60
2019-01-19T16:08:10.400Z,5.70
2019-01-19T16:10:57.129Z,5.50
2019-01-19T16:13:40.989Z,5.60
2019-01-19T16:16:30.816Z,5.70
2019-01-19T16:19:05.768Z,5.60
2019-01-19T16:21:58.975Z,5.60
2019-01-19T16:24:33.572Z,6.00
2019-01-19T16:27:14.779Z,5.80
2019-01-19T16:30:06.516Z,5.90
2019-01-19T16:32:50.577Z,5.90
2019-01-19T16:35:28.129Z,5.70
2019-01-19T16:38:09.190Z,6.00
2019-01-19T16:40:50.217Z,5.90
2019-01-19T16:43:37.535Z,6.00
2019-01-19T16:46:19.118Z,5.80
2019-01-19T16:48:57.245Z,5.90
2019-01-19T16:51:38.688Z,6.20
2019-01-19T16:54:17.390Z,6.20
2019-01-19T16:56:59.071Z,6.10
2019-01-19T16:59:40.052Z,6.30
2019-01-19T17:02:27.355Z,6.30
2019-01-19T17:05:22.058Z,6.10
2019-01-19T17:08:00.382Z,6.30
2019-01-19T17:10:49.657Z,6.20
2019-01-19T17:13:33.293Z,6.30
2019-01-19T17:16:10.887Z,6.30
2019-01-19T17:19:00.424Z,6.60
2019-01-19T17:21:35.103Z,6.40
2019-01-19T17:24:19.535Z,6.60
2019-01-19T17:27:01.087Z,6.50
2019-01-19T17:29:43.459Z,6.40
2019-01-19T17:32:18.656Z,6.70
2019-01-19T17:34:53.892Z,6.80
2019-01-19T17:37:25.685Z,6.90
2019-01-19T17:39:57.544Z,6.90
2019-01-19T17:42:41.416Z,6.90
2019-01-19T17:45:19.003Z,6.90
2019-01-19T17:47:56.745Z,7.20
2019-01-19T17:50:33.151Z,7.20
2019-01-19T17:53:17.019Z,7.30
2019-01-19T17:55:48.990Z,7.40
2019-01-19T17:58:33.342Z,7.60
2019-01-19T18:01:21.870Z,7.50
2019-01-19T18:04:05.619Z,7.60
2019-01-19T18:06:40.648Z,7.60
2019-01-19T18:09:24.211Z,7.90
2019-01-19T18:12:02.455Z,8.00
2019-01-19T18:15:08.070Z,8.10
2019-01-19T18:17:58.884Z,8.20
2019-01-19T18:20:53.872Z,8.50
2019-01-19T18:23:37.697Z,8.30
2019-01-19T18:26:29.374Z,8.40
2019-01-19T18:29:04.973Z,8.50
2019-01-19T18:31:36.819Z,8.70
2019-01-19T18:34:11.937Z,8.60
2019-01-19T18:36:43.931Z,8.40
2019-01-19T18:39:25.315Z,8.70
2019-01-19T18:42:03.395Z,8.70
2019-01-19T18:44:38.815Z,8.80
2019-01-19T18:47:29.659Z,9.00
2019-01-19T18:50:25.988Z,9.00
2019-01-19T18:53:19.221Z,9.10
2019-01-19T18:56:08.103Z,9.10
2019-01-19T18:58:55.668Z,9.20
2019-01-19T19:01:43.272Z,9.70
2019-01-19T19:04:44.117Z,9.40
2019-01-19T19:07:46.407Z,9.60
2019-01-19T19:10:42.420Z,9.40
2019-01-19T19:13:22.992Z,9.50
2019-01-19T19:16:16.692Z,9.60
2019-01-19T19:18:57.308Z,9.80
2019-01-19T19:21:45.778Z,9.90
2019-01-19T19:24:27.166Z,10.00
2019-01-19T19:27:15.591Z,10.20
2019-01-19T19:29:59.447Z,10.20
2019-01-19T19:32:34.355Z,10.40
2019-01-19T19:35:06.577Z,10.40
2019-01-19T19:37:42.073Z,10.60
2019-01-19T19:40:14.032Z,10.60
2019-01-19T19:42:48.613Z,10.80
2019-01-19T19:45:44.682Z,10.80
2019-01-19T19:48:19.950Z,10.90
2019-01-19T19:51:03.872Z,10.90
2019-01-19T19:53:32.742Z,10.80
2019-01-19T19:56:01.471Z,10.80
2019-01-19T19:58:30.945Z,10.70
2019-01-19T20:01:01.569Z,10.80
2019-01-19T20:03:31.597Z,11.00
2019-01-19T20:06:01.128Z,11.10
2019-01-19T20:08:30.602Z,11.20
2019-01-19T20:10:59.735Z,11.20
2019-01-19T20:13:30.364Z,11.40
2019-01-19T20:15:59.457Z,11.40
2019-01-19T20:18:28.403Z,11.30
2019-01-19T20:20:57.962Z,11.30
2019-01-19T20:23:27.614Z,11.10
2019-01-19T20:25:58.335Z,11.30
2019-01-19T20:28:27.504Z,11.30
2019-01-19T20:30:56.972Z,11.10
2019-01-19T20:33:26.174Z,11.00
2019-01-19T20:35:55.554Z,10.90
2019-01-19T20:38:25.530Z,11.10
2019-01-19T20:40:54.270Z,11.10
2019-01-19T20:43:23.052Z,10.80
2019-01-19T20:45:52.067Z,10.90
2019-01-19T20:48:20.949Z,10.90
2019-01-19T20:50:49.726Z,11.00
2019-01-19T20:53:18.443Z,11.00
2019-01-19T20:55:47.104Z,10.90
2019-01-19T20:58:16.056Z,10.70
2019-01-19T21:00:44.836Z,10.80
2019-01-19T21:03:13.889Z,10.80
2019-01-19T21:05:44.000Z,11.00
2019-01-19T21:08:13.505Z,11.00
2019-01-19T21:10:43.084Z,11.10
2019-01-19T21:13:12.283Z,11.20
2019-01-19T21:15:41.434Z,11.30
2019-01-19T21:18:10.152Z,11.30
2019-01-19T21:20:38.778Z,11.40
2019-01-19T21:23:08.430Z,11.40
2019-01-19T21:25:37.146Z,11.40
2019-01-19T21:28:05.887Z,11.40
2019-01-19T21:30:35.877Z,11.40
2019-01-19T21:33:07.553Z,11.40
2019-01-19T21:35:36.964Z,11.30
2019-01-19T21:38:06.229Z,11.30
2019-01-19T21:40:38.965Z,11.20
2019-01-19T21:43:06.086Z,11.20
2019-01-19T21:45:35.396Z,11.10
2019-01-19T21:48:04.828Z,11.10
2019-01-19T21:50:34.176Z,11.10
2019-01-19T21:53:03.128Z,11.10
2019-01-19T21:55:32.225Z,11.10
2019-01-19T21:58:01.814Z,11.20
2019-01-19T22:00:31.040Z,11.20
2019-01-19T22:03:00.498Z,11.20
2019-01-19T22:05:29.156Z,11.30
2019-01-19T22:07:57.696Z,11.30
2019-01-19T22:10:26.312Z,11.30
2019-01-19T22:12:56.431Z,11.30
2019-01-19T22:15:25.738Z,11.30
2019-01-19T22:17:55.027Z,11.40
2019-01-19T22:20:24.207Z,11.30
2019-01-19T22:22:54.010Z,11.40
2019-01-19T22:25:23.222Z,11.50
2019-01-19T22:27:52.749Z,11.50
2019-01-19T22:30:23.345Z,11.50
2019-01-19T22:32:53.933Z,11.50
2019-01-19T22:35:24.885Z,11.40
2019-01-19T22:37:54.672Z,11.50
2019-01-19T22:40:25.436Z,11.60
2019-01-19T22:42:55.332Z,11.60
2019-01-19T22:45:25.325Z,11.60
2019-01-19T22:47:55.024Z,11.60
2019-01-19T22:50:24.272Z,11.50
2019-01-19T22:52:52.825Z,11.50
2019-01-19T22:55:22.122Z,11.40
2019-01-19T22:57:51.011Z,11.50
2019-01-19T23:00:51.456Z,11.50
2019-01-19T23:03:20.514Z,11.50
2019-01-19T23:05:50.835Z,11.60
2019-01-19T23:08:20.085Z,11.60
2019-01-19T23:10:49.227Z,11.70
2019-01-19T23:13:18.552Z,11.60
2019-01-19T23:15:47.678Z,11.60
2019-01-19T23:18:17.076Z,11.60
2019-01-19T23:20:46.443Z,11.60
2019-01-19T23:23:16.191Z,11.50
2019-01-19T23:25:45.231Z,11.50
2019-01-19T23:28:14.569Z,11.50
2019-01-19T23:30:44.190Z,11.40
2019-01-19T23:33:13.413Z,11.40
2019-01-19T23:35:43.490Z,11.50
2019-01-19T23:38:12.819Z,11.40
2019-01-19T23:40:41.849Z,11.40
2019-01-19T23:43:11.390Z,11.40
2019-01-19T23:45:41.007Z,11.40
2019-01-19T23:48:10.509Z,11.30
2019-01-19T23:50:39.815Z,11.30
2019-01-19T23:53:08.955Z,10.90
2019-01-19T23:55:38.243Z,11.10
2019-01-19T23:58:07.516Z,11.10
